sensor_id;sensor_type;location;lat;lon;timestamp;temperature;humidity
42617;DHT22;28250;52.320;0.360;2023-02-26T00:02:24;1.50;99.90
42617;DHT22;28250;52.320;0.360;2023-02-26T00:04:50;1.60;99.90
42617;DHT22;28250;52.320;0.360;2023-02-26T00:07:16;1.60;99.90
42617;DHT22;28250;52.320;0.360;2023-02-26T00:09:42;1.60;99.90
42617;DHT22;28250;52.320;0.360;2023-02-26T00:12:10;1.60;99.90
42617;DHT22;28250;52.320;0.360;2023-02-26T00:14:37;1.60;99.90
42617;DHT22;28250;52.320;0.360;2023-02-26T00:20:07;1.60;99.90
42617;DHT22;28250;52.320;0.360;2023-02-26T00:22:37;1.60;99.90
42617;DHT22;28250;52.320;0.360;2023-02-26T00:25:04;1.60;99.90
42617;DHT22;28250;52.320;0.360;2023-02-26T00:27:31;1.60;99.90
42617;DHT22;28250;52.320;0.360;2023-02-26T00:29:57;1.80;99.90
42617;DHT22;28250;52.320;0.360;2023-02-26T00:32:23;1.90;99.90
42617;DHT22;28250;52.320;0.360;2023-02-26T00:34:50;2.00;99.90
42617;DHT22;28250;52.320;0.360;2023-02-26T00:42:41;2.10;99.90
42617;DHT22;28250;52.320;0.360;2023-02-26T00:45:08;2.20;99.90
42617;DHT22;28250;52.320;0.360;2023-02-26T00:55:11;1.90;99.90
42617;DHT22;28250;52.320;0.360;2023-02-26T00:57:37;1.90;99.90
42617;DHT22;28250;52.320;0.360;2023-02-26T01:00:03;1.90;99.90
42617;DHT22;28250;52.320;0.360;2023-02-26T01:02:34;1.90;99.90
42617;DHT22;28250;52.320;0.360;2023-02-26T01:05:01;1.90;99.90
42617;DHT22;28250;52.320;0.360;2023-02-26T01:07:28;1.90;99.90
42617;DHT22;28250;52.320;0.360;2023-02-26T01:10:05;1.90;99.90
42617;DHT22;28250;52.320;0.360;2023-02-26T01:12:32;1.80;99.90
42617;DHT22;28250;52.320;0.360;2023-02-26T01:14:58;1.80;99.90
42617;DHT22;28250;52.320;0.360;2023-02-26T01:22:39;1.70;99.90
42617;DHT22;28250;52.320;0.360;2023-02-26T01:25:12;1.60;99.90
42617;DHT22;28250;52.320;0.360;2023-02-26T01:27:43;1.70;99.90
42617;DHT22;28250;52.320;0.360;2023-02-26T01:30:09;1.80;99.90
42617;DHT22;28250;52.320;0.360;2023-02-26T01:32:43;1.80;99.90
42617;DHT22;28250;52.320;0.360;2023-02-26T01:38:38;1.90;99.90
42617;DHT22;28250;52.320;0.360;2023-02-26T01:49:32;1.70;99.90
42617;DHT22;28250;52.320;0.360;2023-02-26T01:52:01;1.70;99.90
42617;DHT22;28250;52.320;0.360;2023-02-26T01:54:30;1.70;99.90
42617;DHT22;28250;52.320;0.360;2023-02-26T01:57:00;1.70;99.90
42617;DHT22;28250;52.320;0.360;2023-02-26T01:59:31;1.70;99.90
42617;DHT22;28250;52.320;0.360;2023-02-26T02:01:58;1.60;99.90
42617;DHT22;28250;52.320;0.360;2023-02-26T02:04:24;1.50;99.90
42617;DHT22;28250;52.320;0.360;2023-02-26T02:06:51;1.50;99.90
42617;DHT22;28250;52.320;0.360;2023-02-26T02:09:19;1.50;99.90
42617;DHT22;28250;52.320;0.360;2023-02-26T02:12:00;1.40;99.90
42617;DHT22;28250;52.320;0.360;2023-02-26T02:14:30;1.40;99.90
42617;DHT22;28250;52.320;0.360;2023-02-26T02:28:11;1.20;99.90
42617;DHT22;28250;52.320;0.360;2023-02-26T02:33:42;1.30;99.90
42617;DHT22;28250;52.320;0.360;2023-02-26T02:36:14;1.40;99.90
42617;DHT22;28250;52.320;0.360;2023-02-26T02:39:03;1.50;99.90
42617;DHT22;28250;52.320;0.360;2023-02-26T02:41:36;1.60;99.90
42617;DHT22;28250;52.320;0.360;2023-02-26T02:44:05;1.60;99.90
42617;DHT22;28250;52.320;0.360;2023-02-26T02:46:32;1.70;99.90
42617;DHT22;28250;52.320;0.360;2023-02-26T02:49:01;1.70;99.90
42617;DHT22;28250;52.320;0.360;2023-02-26T02:51:31;1.70;99.90
42617;DHT22;28250;52.320;0.360;2023-02-26T02:56:52;1.70;99.90
42617;DHT22;28250;52.320;0.360;2023-02-26T03:04:42;1.60;99.90
42617;DHT22;28250;52.320;0.360;2023-02-26T03:07:08;1.50;99.90
42617;DHT22;28250;52.320;0.360;2023-02-26T03:09:35;1.50;99.90
42617;DHT22;28250;52.320;0.360;2023-02-26T03:12:01;1.50;99.90
42617;DHT22;28250;52.320;0.360;2023-02-26T03:14:29;1.40;99.90
42617;DHT22;28250;52.320;0.360;2023-02-26T03:30:06;1.10;99.90
42617;DHT22;28250;52.320;0.360;2023-02-26T03:32:57;1.00;99.90
42617;DHT22;28250;52.320;0.360;2023-02-26T03:38:03;1.00;99.90
42617;DHT22;28250;52.320;0.360;2023-02-26T03:40:34;1.00;99.90
42617;DHT22;28250;52.320;0.360;2023-02-26T03:43:06;1.00;99.90
42617;DHT22;28250;52.320;0.360;2023-02-26T03:45:36;1.00;99.90
42617;DHT22;28250;52.320;0.360;2023-02-26T03:48:05;0.90;99.90
42617;DHT22;28250;52.320;0.360;2023-02-26T03:50:34;0.80;99.90
42617;DHT22;28250;52.320;0.360;2023-02-26T03:53:24;0.70;99.90
42617;DHT22;28250;52.320;0.360;2023-02-26T03:58:47;0.80;99.90
42617;DHT22;28250;52.320;0.360;2023-02-26T04:01:38;0.70;99.90
42617;DHT22;28250;52.320;0.360;2023-02-26T04:04:11;0.80;99.90
42617;DHT22;28250;52.320;0.360;2023-02-26T04:06:42;0.70;99.90
42617;DHT22;28250;52.320;0.360;2023-02-26T04:09:08;0.80;99.90
42617;DHT22;28250;52.320;0.360;2023-02-26T04:11:35;0.90;99.90
42617;DHT22;28250;52.320;0.360;2023-02-26T04:14:02;0.90;99.90
42617;DHT22;28250;52.320;0.360;2023-02-26T04:16:31;0.90;99.90
42617;DHT22;28250;52.320;0.360;2023-02-26T04:18:57;1.00;99.90
42617;DHT22;28250;52.320;0.360;2023-02-26T04:21:24;1.00;99.90
42617;DHT22;28250;52.320;0.360;2023-02-26T04:23:50;1.00;99.90
42617;DHT22;28250;52.320;0.360;2023-02-26T04:26:17;0.80;99.90
42617;DHT22;28250;52.320;0.360;2023-02-26T04:28:44;0.80;99.90
42617;DHT22;28250;52.320;0.360;2023-02-26T04:31:11;0.80;99.90
42617;DHT22;28250;52.320;0.360;2023-02-26T04:33:38;0.60;99.90
42617;DHT22;28250;52.320;0.360;2023-02-26T04:36:04;0.60;99.90
42617;DHT22;28250;52.320;0.360;2023-02-26T04:38:30;0.50;99.90
42617;DHT22;28250;52.320;0.360;2023-02-26T04:40:57;0.60;99.90
42617;DHT22;28250;52.320;0.360;2023-02-26T04:43:23;0.60;99.90
42617;DHT22;28250;52.320;0.360;2023-02-26T04:46:02;0.70;99.90
42617;DHT22;28250;52.320;0.360;2023-02-26T04:48:29;0.80;99.90
42617;DHT22;28250;52.320;0.360;2023-02-26T04:50:55;0.80;99.90
42617;DHT22;28250;52.320;0.360;2023-02-26T04:53:21;0.90;99.90
42617;DHT22;28250;52.320;0.360;2023-02-26T04:55:48;1.00;99.90
42617;DHT22;28250;52.320;0.360;2023-02-26T04:58:14;1.10;99.90
42617;DHT22;28250;52.320;0.360;2023-02-26T05:00:40;1.10;99.90
42617;DHT22;28250;52.320;0.360;2023-02-26T05:03:07;1.20;99.90
42617;DHT22;28250;52.320;0.360;2023-02-26T05:05:34;1.10;99.90
42617;DHT22;28250;52.320;0.360;2023-02-26T05:08:01;1.20;99.90
42617;DHT22;28250;52.320;0.360;2023-02-26T05:10:27;1.20;99.90
42617;DHT22;28250;52.320;0.360;2023-02-26T05:12:53;1.30;99.90
42617;DHT22;28250;52.320;0.360;2023-02-26T05:15:19;1.30;99.90
42617;DHT22;28250;52.320;0.360;2023-02-26T05:17:45;1.30;99.90
42617;DHT22;28250;52.320;0.360;2023-02-26T05:20:12;1.40;99.90
42617;DHT22;28250;52.320;0.360;2023-02-26T05:22:40;1.40;99.90
42617;DHT22;28250;52.320;0.360;2023-02-26T05:25:08;1.50;99.90
42617;DHT22;28250;52.320;0.360;2023-02-26T05:27:37;1.50;99.90
42617;DHT22;28250;52.320;0.360;2023-02-26T05:30:05;1.40;99.90
42617;DHT22;28250;52.320;0.360;2023-02-26T05:32:34;1.40;99.90
42617;DHT22;28250;52.320;0.360;2023-02-26T05:35:01;1.50;99.90
42617;DHT22;28250;52.320;0.360;2023-02-26T05:37:27;1.50;99.90
42617;DHT22;28250;52.320;0.360;2023-02-26T05:39:53;1.40;99.90
42617;DHT22;28250;52.320;0.360;2023-02-26T05:42:19;1.40;99.90
42617;DHT22;28250;52.320;0.360;2023-02-26T05:44:45;1.30;99.90
42617;DHT22;28250;52.320;0.360;2023-02-26T05:47:11;1.30;99.90
42617;DHT22;28250;52.320;0.360;2023-02-26T05:49:37;1.30;99.90
42617;DHT22;28250;52.320;0.360;2023-02-26T05:52:04;1.30;99.90
42617;DHT22;28250;52.320;0.360;2023-02-26T05:54:30;1.30;99.90
42617;DHT22;28250;52.320;0.360;2023-02-26T05:56:56;1.30;99.90
42617;DHT22;28250;52.320;0.360;2023-02-26T05:59:22;1.20;99.90
42617;DHT22;28250;52.320;0.360;2023-02-26T06:01:49;1.20;99.90
42617;DHT22;28250;52.320;0.360;2023-02-26T06:04:27;1.30;99.90
42617;DHT22;28250;52.320;0.360;2023-02-26T06:06:53;1.20;99.90
42617;DHT22;28250;52.320;0.360;2023-02-26T06:09:19;1.20;99.90
42617;DHT22;28250;52.320;0.360;2023-02-26T06:11:45;1.30;99.90
42617;DHT22;28250;52.320;0.360;2023-02-26T06:14:11;1.40;99.90
42617;DHT22;28250;52.320;0.360;2023-02-26T06:16:38;1.40;99.90
42617;DHT22;28250;52.320;0.360;2023-02-26T06:19:04;1.50;99.90
42617;DHT22;28250;52.320;0.360;2023-02-26T06:21:30;1.50;99.90
42617;DHT22;28250;52.320;0.360;2023-02-26T06:23:56;1.40;99.90
42617;DHT22;28250;52.320;0.360;2023-02-26T06:26:23;1.50;99.90
42617;DHT22;28250;52.320;0.360;2023-02-26T06:28:49;1.50;99.90
42617;DHT22;28250;52.320;0.360;2023-02-26T06:31:15;1.50;99.90
42617;DHT22;28250;52.320;0.360;2023-02-26T06:33:41;1.60;99.90
42617;DHT22;28250;52.320;0.360;2023-02-26T06:36:07;1.50;99.90
42617;DHT22;28250;52.320;0.360;2023-02-26T06:38:34;1.60;99.90
42617;DHT22;28250;52.320;0.360;2023-02-26T06:41:00;1.60;99.90
42617;DHT22;28250;52.320;0.360;2023-02-26T06:43:26;1.60;99.90
42617;DHT22;28250;52.320;0.360;2023-02-26T06:45:55;1.50;99.90
42617;DHT22;28250;52.320;0.360;2023-02-26T06:48:22;1.50;99.90
42617;DHT22;28250;52.320;0.360;2023-02-26T06:50:48;1.40;99.90
42617;DHT22;28250;52.320;0.360;2023-02-26T06:53:14;1.40;99.90
42617;DHT22;28250;52.320;0.360;2023-02-26T06:55:42;1.40;99.90
42617;DHT22;28250;52.320;0.360;2023-02-26T06:58:09;1.30;99.90
42617;DHT22;28250;52.320;0.360;2023-02-26T07:00:35;1.30;99.90
42617;DHT22;28250;52.320;0.360;2023-02-26T07:03:03;1.30;99.90
42617;DHT22;28250;52.320;0.360;2023-02-26T07:05:29;1.30;99.90
42617;DHT22;28250;52.320;0.360;2023-02-26T07:07:56;1.40;99.90
42617;DHT22;28250;52.320;0.360;2023-02-26T07:10:22;1.40;99.90
42617;DHT22;28250;52.320;0.360;2023-02-26T07:12:49;1.40;99.90
42617;DHT22;28250;52.320;0.360;2023-02-26T07:15:16;1.40;99.90
42617;DHT22;28250;52.320;0.360;2023-02-26T07:17:42;1.40;99.90
42617;DHT22;28250;52.320;0.360;2023-02-26T07:20:08;1.50;99.90
42617;DHT22;28250;52.320;0.360;2023-02-26T07:22:36;1.50;99.90
42617;DHT22;28250;52.320;0.360;2023-02-26T07:25:03;1.40;99.90
42617;DHT22;28250;52.320;0.360;2023-02-26T07:27:30;1.50;99.90
42617;DHT22;28250;52.320;0.360;2023-02-26T07:29:58;1.40;99.90
42617;DHT22;28250;52.320;0.360;2023-02-26T07:32:24;1.40;99.90
42617;DHT22;28250;52.320;0.360;2023-02-26T07:34:51;1.40;99.90
42617;DHT22;28250;52.320;0.360;2023-02-26T07:37:17;1.30;99.90
42617;DHT22;28250;52.320;0.360;2023-02-26T07:39:43;1.30;99.90
42617;DHT22;28250;52.320;0.360;2023-02-26T07:42:10;1.30;99.90
42617;DHT22;28250;52.320;0.360;2023-02-26T07:44:38;1.40;99.90
42617;DHT22;28250;52.320;0.360;2023-02-26T07:47:04;1.40;99.90
42617;DHT22;28250;52.320;0.360;2023-02-26T07:49:30;1.50;99.90
42617;DHT22;28250;52.320;0.360;2023-02-26T07:51:59;1.40;99.90
42617;DHT22;28250;52.320;0.360;2023-02-26T07:54:25;1.50;99.90
42617;DHT22;28250;52.320;0.360;2023-02-26T07:56:51;1.40;99.90
42617;DHT22;28250;52.320;0.360;2023-02-26T07:59:17;1.50;99.90
42617;DHT22;28250;52.320;0.360;2023-02-26T08:01:43;1.60;99.90
42617;DHT22;28250;52.320;0.360;2023-02-26T08:04:09;1.70;99.90
42617;DHT22;28250;52.320;0.360;2023-02-26T08:06:36;1.80;99.90
42617;DHT22;28250;52.320;0.360;2023-02-26T08:09:02;1.90;99.90
42617;DHT22;28250;52.320;0.360;2023-02-26T08:11:29;1.90;99.90
42617;DHT22;28250;52.320;0.360;2023-02-26T08:13:55;1.90;99.90
42617;DHT22;28250;52.320;0.360;2023-02-26T08:16:21;1.90;99.90
42617;DHT22;28250;52.320;0.360;2023-02-26T08:18:47;2.00;99.90
42617;DHT22;28250;52.320;0.360;2023-02-26T08:21:13;2.20;99.90
42617;DHT22;28250;52.320;0.360;2023-02-26T08:23:39;2.30;99.90
42617;DHT22;28250;52.320;0.360;2023-02-26T08:26:07;2.40;99.90
42617;DHT22;28250;52.320;0.360;2023-02-26T08:28:34;2.30;99.90
42617;DHT22;28250;52.320;0.360;2023-02-26T08:31:01;2.30;99.90
42617;DHT22;28250;52.320;0.360;2023-02-26T08:33:27;2.20;99.90
42617;DHT22;28250;52.320;0.360;2023-02-26T08:35:54;2.20;99.90
42617;DHT22;28250;52.320;0.360;2023-02-26T08:38:24;2.20;99.90
42617;DHT22;28250;52.320;0.360;2023-02-26T08:40:50;2.40;99.90
42617;DHT22;28250;52.320;0.360;2023-02-26T08:43:18;2.50;99.90
42617;DHT22;28250;52.320;0.360;2023-02-26T08:45:44;2.60;99.90
42617;DHT22;28250;52.320;0.360;2023-02-26T08:48:11;2.70;99.90
42617;DHT22;28250;52.320;0.360;2023-02-26T08:50:38;2.80;99.90
42617;DHT22;28250;52.320;0.360;2023-02-26T08:53:05;2.90;99.90
42617;DHT22;28250;52.320;0.360;2023-02-26T08:55:31;3.00;99.90
42617;DHT22;28250;52.320;0.360;2023-02-26T08:57:57;3.10;99.90
42617;DHT22;28250;52.320;0.360;2023-02-26T09:00:24;3.20;99.90
42617;DHT22;28250;52.320;0.360;2023-02-26T09:02:50;3.20;99.90
42617;DHT22;28250;52.320;0.360;2023-02-26T09:05:16;3.30;99.90
42617;DHT22;28250;52.320;0.360;2023-02-26T09:07:43;3.40;99.90
42617;DHT22;28250;52.320;0.360;2023-02-26T09:10:09;3.60;99.90
42617;DHT22;28250;52.320;0.360;2023-02-26T09:12:36;3.70;99.90
42617;DHT22;28250;52.320;0.360;2023-02-26T09:15:03;3.80;99.90
42617;DHT22;28250;52.320;0.360;2023-02-26T09:17:30;3.80;99.90
42617;DHT22;28250;52.320;0.360;2023-02-26T09:19:56;3.90;99.90
42617;DHT22;28250;52.320;0.360;2023-02-26T09:22:23;4.00;99.90
42617;DHT22;28250;52.320;0.360;2023-02-26T09:24:49;4.30;99.90
42617;DHT22;28250;52.320;0.360;2023-02-26T09:27:15;4.40;99.90
42617;DHT22;28250;52.320;0.360;2023-02-26T09:29:42;4.50;99.90
42617;DHT22;28250;52.320;0.360;2023-02-26T09:32:08;4.60;99.90
42617;DHT22;28250;52.320;0.360;2023-02-26T09:34:36;4.60;99.90
42617;DHT22;28250;52.320;0.360;2023-02-26T09:37:03;4.80;99.90
42617;DHT22;28250;52.320;0.360;2023-02-26T09:39:30;5.00;99.90
42617;DHT22;28250;52.320;0.360;2023-02-26T09:41:58;5.00;99.90
42617;DHT22;28250;52.320;0.360;2023-02-26T09:44:27;5.10;99.90
42617;DHT22;28250;52.320;0.360;2023-02-26T09:51:59;5.40;99.90
42617;DHT22;28250;52.320;0.360;2023-02-26T09:54:40;5.60;99.90
42617;DHT22;28250;52.320;0.360;2023-02-26T09:57:10;5.70;99.90
42617;DHT22;28250;52.320;0.360;2023-02-26T09:59:45;5.90;99.90
42617;DHT22;28250;52.320;0.360;2023-02-26T10:13:03;6.40;99.90
42617;DHT22;28250;52.320;0.360;2023-02-26T10:15:33;6.50;99.90
42617;DHT22;28250;52.320;0.360;2023-02-26T10:26:06;6.90;99.90
42617;DHT22;28250;52.320;0.360;2023-02-26T10:28:40;7.10;99.90
42617;DHT22;28250;52.320;0.360;2023-02-26T10:39:21;7.90;99.90
42617;DHT22;28250;52.320;0.360;2023-02-26T10:41:52;8.00;99.90
42617;DHT22;28250;52.320;0.360;2023-02-26T10:44:24;8.00;99.90
42617;DHT22;28250;52.320;0.360;2023-02-26T10:47:04;8.00;99.90
42617;DHT22;28250;52.320;0.360;2023-02-26T10:49:39;8.10;99.90
42617;DHT22;28250;52.320;0.360;2023-02-26T10:52:14;8.40;99.90
42617;DHT22;28250;52.320;0.360;2023-02-26T10:54:46;7.80;99.90
42617;DHT22;28250;52.320;0.360;2023-02-26T10:57:30;7.50;99.90
42617;DHT22;28250;52.320;0.360;2023-02-26T10:59:58;8.00;99.90
42617;DHT22;28250;52.320;0.360;2023-02-26T11:05:15;8.40;99.90
42617;DHT22;28250;52.320;0.360;2023-02-26T11:07:44;8.60;99.90
42617;DHT22;28250;52.320;0.360;2023-02-26T11:10:14;8.30;99.90
42617;DHT22;28250;52.320;0.360;2023-02-26T11:12:42;8.00;99.90
42617;DHT22;28250;52.320;0.360;2023-02-26T11:15:12;8.00;99.90
42617;DHT22;28250;52.320;0.360;2023-02-26T11:17:42;8.20;99.90
42617;DHT22;28250;52.320;0.360;2023-02-26T11:22:36;8.50;99.90
42617;DHT22;28250;52.320;0.360;2023-02-26T11:25:04;8.00;99.90
42617;DHT22;28250;52.320;0.360;2023-02-26T11:27:31;7.70;99.90
42617;DHT22;28250;52.320;0.360;2023-02-26T11:30:03;7.90;99.90
42617;DHT22;28250;52.320;0.360;2023-02-26T11:32:33;8.70;99.90
42617;DHT22;28250;52.320;0.360;2023-02-26T11:35:01;9.40;99.90
42617;DHT22;28250;52.320;0.360;2023-02-26T11:37:29;9.30;99.90
42617;DHT22;28250;52.320;0.360;2023-02-26T11:40:05;8.80;99.90
42617;DHT22;28250;52.320;0.360;2023-02-26T11:42:44;8.60;99.90
42617;DHT22;28250;52.320;0.360;2023-02-26T11:45:15;8.90;99.90
42617;DHT22;28250;52.320;0.360;2023-02-26T11:47:43;9.80;99.90
42617;DHT22;28250;52.320;0.360;2023-02-26T11:50:12;10.10;99.90
42617;DHT22;28250;52.320;0.360;2023-02-26T11:52:43;9.70;99.90
42617;DHT22;28250;52.320;0.360;2023-02-26T11:55:18;9.30;99.90
42617;DHT22;28250;52.320;0.360;2023-02-26T11:57:52;9.00;99.90
42617;DHT22;28250;52.320;0.360;2023-02-26T12:00:20;8.80;99.90
42617;DHT22;28250;52.320;0.360;2023-02-26T12:02:48;8.70;99.90
42617;DHT22;28250;52.320;0.360;2023-02-26T12:05:15;9.40;99.90
42617;DHT22;28250;52.320;0.360;2023-02-26T12:07:42;10.20;99.90
42617;DHT22;28250;52.320;0.360;2023-02-26T12:10:22;10.00;99.90
42617;DHT22;28250;52.320;0.360;2023-02-26T12:12:55;9.60;99.90
42617;DHT22;28250;52.320;0.360;2023-02-26T12:15:31;9.30;99.90
42617;DHT22;28250;52.320;0.360;2023-02-26T12:26:05;8.80;99.90
42617;DHT22;28250;52.320;0.360;2023-02-26T12:42:06;10.80;99.90
42617;DHT22;28250;52.320;0.360;2023-02-26T12:49:53;9.50;99.90
42617;DHT22;28250;52.320;0.360;2023-02-26T12:52:45;9.20;99.90
42617;DHT22;28250;52.320;0.360;2023-02-26T13:20:16;9.20;99.90
42617;DHT22;28250;52.320;0.360;2023-02-26T13:22:47;8.90;99.90
42617;DHT22;28250;52.320;0.360;2023-02-26T13:27:46;8.40;99.90
42617;DHT22;28250;52.320;0.360;2023-02-26T13:32:59;8.10;99.90
42617;DHT22;28250;52.320;0.360;2023-02-26T13:37:54;9.10;99.90
42617;DHT22;28250;52.320;0.360;2023-02-26T13:51:36;10.50;99.90
42617;DHT22;28250;52.320;0.360;2023-02-26T13:54:16;10.40;99.90
42617;DHT22;28250;52.320;0.360;2023-02-26T13:59:47;10.60;99.90
42617;DHT22;28250;52.320;0.360;2023-02-26T14:02:35;10.70;99.90
42617;DHT22;28250;52.320;0.360;2023-02-26T14:05:05;10.50;99.90
42617;DHT22;28250;52.320;0.360;2023-02-26T14:10:43;10.00;99.90
42617;DHT22;28250;52.320;0.360;2023-02-26T14:23:56;11.30;99.90
42617;DHT22;28250;52.320;0.360;2023-02-26T14:26:26;11.20;99.90
42617;DHT22;28250;52.320;0.360;2023-02-26T14:31:21;10.90;99.90
42617;DHT22;28250;52.320;0.360;2023-02-26T14:33:58;10.60;99.90
42617;DHT22;28250;52.320;0.360;2023-02-26T14:36:36;10.10;99.90
42617;DHT22;28250;52.320;0.360;2023-02-26T14:39:12;10.10;99.90
42617;DHT22;28250;52.320;0.360;2023-02-26T14:41:47;10.50;99.90
42617;DHT22;28250;52.320;0.360;2023-02-26T14:44:16;10.00;99.90
42617;DHT22;28250;52.320;0.360;2023-02-26T14:46:47;9.80;99.90
42617;DHT22;28250;52.320;0.360;2023-02-26T14:49:17;10.10;99.90
42617;DHT22;28250;52.320;0.360;2023-02-26T14:54:37;10.30;99.90
42617;DHT22;28250;52.320;0.360;2023-02-26T14:57:36;9.70;99.90
42617;DHT22;28250;52.320;0.360;2023-02-26T15:10:49;8.90;99.90
42617;DHT22;28250;52.320;0.360;2023-02-26T15:13:23;8.90;99.90
42617;DHT22;28250;52.320;0.360;2023-02-26T15:19:22;9.10;99.90
42617;DHT22;28250;52.320;0.360;2023-02-26T15:24:27;8.90;99.90
42617;DHT22;28250;52.320;0.360;2023-02-26T15:26:56;9.00;99.90
42617;DHT22;28250;52.320;0.360;2023-02-26T15:29:29;8.90;99.90
42617;DHT22;28250;52.320;0.360;2023-02-26T15:31:58;9.00;99.90
42617;DHT22;28250;52.320;0.360;2023-02-26T15:34:27;9.10;99.90
42617;DHT22;28250;52.320;0.360;2023-02-26T15:36:55;9.00;99.90
42617;DHT22;28250;52.320;0.360;2023-02-26T15:39:23;8.90;99.90
42617;DHT22;28250;52.320;0.360;2023-02-26T15:41:50;8.80;99.90
42617;DHT22;28250;52.320;0.360;2023-02-26T15:44:18;8.70;99.90
42617;DHT22;28250;52.320;0.360;2023-02-26T15:46:49;8.40;99.90
42617;DHT22;28250;52.320;0.360;2023-02-26T15:49:24;8.20;99.90
42617;DHT22;28250;52.320;0.360;2023-02-26T15:51:55;8.20;99.90
42617;DHT22;28250;52.320;0.360;2023-02-26T15:54:23;8.20;99.90
42617;DHT22;28250;52.320;0.360;2023-02-26T15:56:51;8.00;99.90
42617;DHT22;28250;52.320;0.360;2023-02-26T15:59:18;7.70;99.90
42617;DHT22;28250;52.320;0.360;2023-02-26T16:01:47;7.70;99.90
42617;DHT22;28250;52.320;0.360;2023-02-26T16:04:16;7.70;99.90
42617;DHT22;28250;52.320;0.360;2023-02-26T16:06:46;7.60;99.90
42617;DHT22;28250;52.320;0.360;2023-02-26T16:09:15;7.30;99.90
42617;DHT22;28250;52.320;0.360;2023-02-26T16:11:43;7.10;99.90
42617;DHT22;28250;52.320;0.360;2023-02-26T16:14:13;6.90;99.90
42617;DHT22;28250;52.320;0.360;2023-02-26T16:16:43;6.90;99.90
42617;DHT22;28250;52.320;0.360;2023-02-26T16:19:17;6.90;99.90
42617;DHT22;28250;52.320;0.360;2023-02-26T16:21:46;6.90;99.90
42617;DHT22;28250;52.320;0.360;2023-02-26T16:24:15;7.00;99.90
42617;DHT22;28250;52.320;0.360;2023-02-26T16:26:46;6.90;99.90
42617;DHT22;28250;52.320;0.360;2023-02-26T16:29:17;6.80;99.90
42617;DHT22;28250;52.320;0.360;2023-02-26T16:31:48;6.70;99.90
42617;DHT22;28250;52.320;0.360;2023-02-26T16:34:21;6.60;99.90
42617;DHT22;28250;52.320;0.360;2023-02-26T16:36:48;6.60;99.90
42617;DHT22;28250;52.320;0.360;2023-02-26T16:39:22;6.50;99.90
42617;DHT22;28250;52.320;0.360;2023-02-26T16:42:00;6.50;99.90
42617;DHT22;28250;52.320;0.360;2023-02-26T16:46:57;6.30;99.90
42617;DHT22;28250;52.320;0.360;2023-02-26T16:49:28;6.20;99.90
42617;DHT22;28250;52.320;0.360;2023-02-26T16:51:55;6.20;99.90
42617;DHT22;28250;52.320;0.360;2023-02-26T16:54:23;6.10;99.90
42617;DHT22;28250;52.320;0.360;2023-02-26T16:56:56;6.00;99.90
42617;DHT22;28250;52.320;0.360;2023-02-26T16:59:25;5.90;99.90
42617;DHT22;28250;52.320;0.360;2023-02-26T17:01:56;5.80;99.90
42617;DHT22;28250;52.320;0.360;2023-02-26T17:04:27;5.70;99.90
42617;DHT22;28250;52.320;0.360;2023-02-26T17:06:56;5.70;99.90
42617;DHT22;28250;52.320;0.360;2023-02-26T17:09:29;5.60;99.90
42617;DHT22;28250;52.320;0.360;2023-02-26T17:14:51;5.50;99.90
42617;DHT22;28250;52.320;0.360;2023-02-26T17:17:19;5.40;99.90
42617;DHT22;28250;52.320;0.360;2023-02-26T17:19:46;5.20;99.90
42617;DHT22;28250;52.320;0.360;2023-02-26T17:22:13;5.20;99.90
42617;DHT22;28250;52.320;0.360;2023-02-26T17:24:41;5.10;99.90
42617;DHT22;28250;52.320;0.360;2023-02-26T17:27:12;5.00;99.90
42617;DHT22;28250;52.320;0.360;2023-02-26T17:29:42;4.90;99.90
42617;DHT22;28250;52.320;0.360;2023-02-26T17:32:11;4.80;99.90
42617;DHT22;28250;52.320;0.360;2023-02-26T17:34:42;4.70;99.90
42617;DHT22;28250;52.320;0.360;2023-02-26T17:37:12;4.60;99.90
42617;DHT22;28250;52.320;0.360;2023-02-26T17:39:39;4.40;99.90
42617;DHT22;28250;52.320;0.360;2023-02-26T17:42:09;4.40;99.90
42617;DHT22;28250;52.320;0.360;2023-02-26T17:44:39;4.30;99.90
42617;DHT22;28250;52.320;0.360;2023-02-26T17:47:05;4.30;99.90
42617;DHT22;28250;52.320;0.360;2023-02-26T17:49:32;4.30;99.90
42617;DHT22;28250;52.320;0.360;2023-02-26T17:51:58;4.20;99.90
42617;DHT22;28250;52.320;0.360;2023-02-26T17:54:24;4.20;99.90
42617;DHT22;28250;52.320;0.360;2023-02-26T17:56:50;4.10;99.90
42617;DHT22;28250;52.320;0.360;2023-02-26T17:59:16;4.00;99.90
42617;DHT22;28250;52.320;0.360;2023-02-26T18:01:42;3.90;99.90
42617;DHT22;28250;52.320;0.360;2023-02-26T18:04:09;3.80;99.90
42617;DHT22;28250;52.320;0.360;2023-02-26T18:06:36;3.70;99.90
42617;DHT22;28250;52.320;0.360;2023-02-26T18:09:04;3.70;99.90
42617;DHT22;28250;52.320;0.360;2023-02-26T18:11:31;3.60;99.90
42617;DHT22;28250;52.320;0.360;2023-02-26T18:13:58;3.60;99.90
42617;DHT22;28250;52.320;0.360;2023-02-26T18:16:30;3.60;99.90
42617;DHT22;28250;52.320;0.360;2023-02-26T18:18:58;3.50;99.90
42617;DHT22;28250;52.320;0.360;2023-02-26T18:21:25;3.40;99.90
42617;DHT22;28250;52.320;0.360;2023-02-26T18:23:51;3.40;99.90
42617;DHT22;28250;52.320;0.360;2023-02-26T18:26:21;3.40;99.90
42617;DHT22;28250;52.320;0.360;2023-02-26T18:28:48;3.30;99.90
42617;DHT22;28250;52.320;0.360;2023-02-26T18:31:16;3.30;99.90
42617;DHT22;28250;52.320;0.360;2023-02-26T18:33:42;3.30;99.90
42617;DHT22;28250;52.320;0.360;2023-02-26T18:36:12;3.20;99.90
42617;DHT22;28250;52.320;0.360;2023-02-26T18:38:43;3.10;99.90
42617;DHT22;28250;52.320;0.360;2023-02-26T18:41:09;3.00;99.90
42617;DHT22;28250;52.320;0.360;2023-02-26T18:43:36;3.00;99.90
42617;DHT22;28250;52.320;0.360;2023-02-26T18:46:02;3.00;99.90
42617;DHT22;28250;52.320;0.360;2023-02-26T18:48:28;2.90;99.90
42617;DHT22;28250;52.320;0.360;2023-02-26T18:50:54;2.90;99.90
42617;DHT22;28250;52.320;0.360;2023-02-26T18:53:21;2.70;99.90
42617;DHT22;28250;52.320;0.360;2023-02-26T18:55:49;2.70;99.90
42617;DHT22;28250;52.320;0.360;2023-02-26T18:58:16;2.60;99.90
42617;DHT22;28250;52.320;0.360;2023-02-26T19:00:42;2.60;99.90
42617;DHT22;28250;52.320;0.360;2023-02-26T19:03:10;2.50;99.90
42617;DHT22;28250;52.320;0.360;2023-02-26T19:05:36;2.50;99.90
42617;DHT22;28250;52.320;0.360;2023-02-26T19:08:03;2.40;99.90
42617;DHT22;28250;52.320;0.360;2023-02-26T19:10:30;2.40;99.90
42617;DHT22;28250;52.320;0.360;2023-02-26T19:12:57;2.40;99.90
42617;DHT22;28250;52.320;0.360;2023-02-26T19:15:24;2.30;99.90
42617;DHT22;28250;52.320;0.360;2023-02-26T19:17:50;2.30;99.90
42617;DHT22;28250;52.320;0.360;2023-02-26T19:20:16;2.30;99.90
42617;DHT22;28250;52.320;0.360;2023-02-26T19:22:43;2.20;99.90
42617;DHT22;28250;52.320;0.360;2023-02-26T19:25:11;2.20;99.90
42617;DHT22;28250;52.320;0.360;2023-02-26T19:27:37;2.20;99.90
42617;DHT22;28250;52.320;0.360;2023-02-26T19:30:04;2.10;99.90
42617;DHT22;28250;52.320;0.360;2023-02-26T19:32:31;2.10;99.90
42617;DHT22;28250;52.320;0.360;2023-02-26T19:34:58;2.00;99.90
42617;DHT22;28250;52.320;0.360;2023-02-26T19:37:24;2.00;99.90
42617;DHT22;28250;52.320;0.360;2023-02-26T19:39:51;2.00;99.90
42617;DHT22;28250;52.320;0.360;2023-02-26T19:42:17;2.00;99.90